createdAt,value
2023-05-22T00:00:24.476Z,93.4
2023-05-22T00:12:24.436Z,93.8
2023-05-22T00:24:24.473Z,94.2
2023-05-22T00:36:24.494Z,95.3
2023-05-22T00:48:24.500Z,95.9
2023-05-22T01:00:24.432Z,96.2
2023-05-22T01:12:24.504Z,96.7
2023-05-22T01:24:24.481Z,97.0
2023-05-22T01:36:24.479Z,96.9
2023-05-22T01:48:24.514Z,96.9
2023-05-22T02:00:24.455Z,97.2
2023-05-22T02:12:24.472Z,96.4
2023-05-22T02:24:24.467Z,96.9
2023-05-22T02:36:24.450Z,97.6
2023-05-22T02:48:24.474Z,97.5
2023-05-22T03:00:24.439Z,97.2
2023-05-22T03:12:24.473Z,97.5
2023-05-22T03:24:24.515Z,98.2
2023-05-22T03:36:24.456Z,98.3
2023-05-22T03:48:24.440Z,98.3
2023-05-22T04:00:26.741Z,98.2
2023-05-22T04:12:24.659Z,98.3
2023-05-22T04:24:24.493Z,98.1
2023-05-22T04:36:24.438Z,98.2
2023-05-22T04:48:24.432Z,98.3
2023-05-22T05:00:24.782Z,98.3
2023-05-22T05:12:24.469Z,97.1
2023-05-22T05:24:24.433Z,96.5
2023-05-22T05:36:24.550Z,97.0
2023-05-22T05:48:24.517Z,98.2
2023-05-22T06:00:24.430Z,98.3
2023-05-22T06:12:24.430Z,98.3
2023-05-22T06:24:24.458Z,98.4
2023-05-22T06:36:24.570Z,98.4
2023-05-22T06:48:24.438Z,98.4
2023-05-22T07:00:24.431Z,98.4
2023-05-22T07:12:24.542Z,98.4
2023-05-22T07:24:24.436Z,98.0
2023-05-22T07:36:24.433Z,97.6
2023-05-22T07:48:24.426Z,96.0
2023-05-22T08:00:24.515Z,93.2
2023-05-22T08:12:24.423Z,91.3
2023-05-22T08:24:24.444Z,89.6
2023-05-22T08:36:24.514Z,86.2
2023-05-22T08:48:24.484Z,83.9
2023-05-22T09:00:24.422Z,84.6
2023-05-22T09:12:24.428Z,81.4
2023-05-22T09:24:24.439Z,77.1
2023-05-22T09:36:24.470Z,74.9
2023-05-22T09:48:24.442Z,77.4
2023-05-22T10:00:24.447Z,77.1
2023-05-22T10:12:24.515Z,76.1
2023-05-22T10:24:24.438Z,74.2
2023-05-22T10:36:24.567Z,73.7
2023-05-22T10:48:24.430Z,76.1
2023-05-22T11:00:24.450Z,69.3
2023-05-22T11:12:24.608Z,65.8
2023-05-22T11:24:24.444Z,66.5
2023-05-22T11:36:24.447Z,67.9
2023-05-22T11:48:24.440Z,66.1
2023-05-22T12:00:24.559Z,66.6
2023-05-22T12:12:24.489Z,66.9
2023-05-22T12:24:24.424Z,64.5
2023-05-22T12:36:24.995Z,64.9
2023-05-22T12:48:24.504Z,64.3
2023-05-22T13:00:24.460Z,67.7
2023-05-22T13:12:24.502Z,66.5
2023-05-22T13:24:24.513Z,66.4
2023-05-22T13:36:24.531Z,67.1
2023-05-22T13:48:24.447Z,67.9
2023-05-22T14:00:24.443Z,67.0
2023-05-22T14:12:24.535Z,68.0
2023-05-22T14:24:24.428Z,63.9
2023-05-22T14:36:24.464Z,64.2
2023-05-22T14:48:24.458Z,62.9
2023-05-22T15:00:24.436Z,64.6
2023-05-22T15:12:24.450Z,64.2
2023-05-22T15:24:24.455Z,66.1
2023-05-22T15:36:24.443Z,65.7
2023-05-22T15:48:24.430Z,65.1
2023-05-22T16:00:24.555Z,66.1
2023-05-22T16:12:24.518Z,66.6
2023-05-22T16:24:24.499Z,68.5
2023-05-22T16:36:27.022Z,68.4
2023-05-22T16:48:24.493Z,69.0
2023-05-22T17:00:24.453Z,70.3
2023-05-22T17:12:24.513Z,71.4
2023-05-22T17:24:24.511Z,73.2
2023-05-22T17:36:24.461Z,74.8
2023-05-22T17:48:24.428Z,75.2
2023-05-22T18:00:24.423Z,75.9
2023-05-22T18:12:31.682Z,76.3
2023-05-22T18:24:25.316Z,77.6
2023-05-22T18:36:24.552Z,77.7
2023-05-22T18:48:24.542Z,79.1
2023-05-22T19:00:24.518Z,79.9
2023-05-22T19:12:24.555Z,80.8
2023-05-22T19:24:24.518Z,81.9
2023-05-22T19:36:24.442Z,83.1
2023-05-22T19:48:24.558Z,83.8
2023-05-22T20:00:24.562Z,84.1
2023-05-22T20:12:24.508Z,84.2
2023-05-22T20:24:24.544Z,84.3
2023-05-22T20:36:24.437Z,85.1
2023-05-22T20:48:24.528Z,84.9
2023-05-22T21:00:24.545Z,84.2
2023-05-22T21:12:24.438Z,84.5
2023-05-22T21:24:24.433Z,85.3
2023-05-22T21:36:24.434Z,85.6
2023-05-22T21:48:24.534Z,86.9
2023-05-22T22:00:24.451Z,87.5
2023-05-22T22:12:24.460Z,87.8
2023-05-22T22:24:24.433Z,88.7
2023-05-22T22:36:24.446Z,89.3
2023-05-22T22:48:24.557Z,89.6
2023-05-22T23:00:24.456Z,88.9
2023-05-22T23:12:24.518Z,87.9
2023-05-22T23:24:24.439Z,84.9
2023-05-22T23:36:24.553Z,85.0
2023-05-22T23:48:24.427Z,84.6
